PWSweather.com
Personal Weather Stations
Station Observations
PWSLORIS
The Farm At Fox Bay, Loris, SC 29569

The Farm At Fox BayLoris, SC 29569

Lat: 34.067097, Lon: -78.86907

Elevation: 108

Station Type: Davis Vantage Pro2 with 24 hr. FARS and solar

http://www.lorisweather.com

Latest ConditionsUpdated 7:00:00 PM EST Tuesday, Jan 23, 2018
Currently Today's Max Today's Min Today's Average
Temperature 62.1°F16.7°C 76.4°F24.7°C 61.3°F16.3°C 67.7°F19.8°C
Dew Point 38.1°F3.4°C 65.1°F18.4°C 37.5°F3.1°C 59.6°F15.3°C
Winds Calm Calm 9.2 mph S14.8 kmh S - 3.2 mph 5.1 kmh
Wind Gusts -- 18.4 mph29.6 kmh - -
Humidity 41% 97% 38% 78%
Pressure 29.88 in1011.9 mb 30.00 in1015.9 mb 29.77 in1008.1 mb -
Precipitation - 0.11 in2.8 mm - -
Hour Temp Dew Point Humidity Winds Wind Gusts Pressure Precip Precip Rate Daily Precip Total
07:00 PM 62.1°F16.7°C 38.1°F3.4°C 41% Calm Calm -- 29.88 in1011.9 mb - 0.00 in0.0 mm 0.11 in2.8 mm
06:45 PM 62.8°F17.1°C 37.5°F3.1°C 39% 1.2 mph SW1.9 kmh SW 3.5 mph5.6 kmh 29.86 in1011.2 mb - 0.00 in0.0 mm 0.11 in2.8 mm
06:30 PM 63.7°F17.6°C 40.2°F4.6°C 42% 1.2 mph WNW1.9 kmh WNW 4.6 mph7.4 kmh 29.86 in1011.2 mb - 0.00 in0.0 mm 0.11 in2.8 mm
06:15 PM 64.9°F18.3°C 40.7°F4.8°C 41% Calm Calm 4.6 mph7.4 kmh 29.85 in1010.8 mb - 0.00 in0.0 mm 0.11 in2.8 mm
06:00 PM 65.8°F18.8°C 40.8°F4.9°C 40% Calm Calm -- 29.84 in1010.5 mb - 0.00 in0.0 mm 0.11 in2.8 mm
05:45 PM 67.2°F19.6°C 40.7°F4.8°C 38% 1.2 mph SW1.9 kmh SW 3.5 mph5.6 kmh 29.83 in1010.2 mb - 0.00 in0.0 mm 0.11 in2.8 mm
05:30 PM 68.0°F20.0°C 41.4°F5.2°C 38% Calm Calm 10.4 mph16.7 kmh 29.83 in1010.2 mb - 0.00 in0.0 mm 0.11 in2.8 mm
05:15 PM 68.9°F20.5°C 42.2°F5.7°C 38% Calm Calm -- 29.82 in1009.8 mb - 0.00 in0.0 mm 0.11 in2.8 mm
05:00 PM 69.8°F21.0°C 43.1°F6.2°C 38% 3.5 mph NW5.6 kmh NW 6.9 mph11.1 kmh 29.81 in1009.5 mb - 0.00 in0.0 mm 0.11 in2.8 mm
04:45 PM 70.6°F21.4°C 46.4°F8.0°C 42% Calm Calm 4.6 mph7.4 kmh 29.80 in1009.1 mb - 0.00 in0.0 mm 0.11 in2.8 mm
04:30 PM 71.0°F21.7°C 49.2°F9.6°C 46% 1.2 mph NW1.9 kmh NW 5.8 mph9.3 kmh 29.80 in1009.1 mb - 0.00 in0.0 mm 0.11 in2.8 mm
04:15 PM 71.4°F21.9°C 53.9°F12.2°C 54% 3.5 mph W5.6 kmh W 8.1 mph13.0 kmh 29.79 in1008.8 mb - 0.00 in0.0 mm 0.11 in2.8 mm
04:00 PM 72.1°F22.3°C 53.5°F11.9°C 52% Calm Calm 1.2 mph1.9 kmh 29.79 in1008.8 mb - 0.00 in0.0 mm 0.11 in2.8 mm
03:45 PM 72.8°F22.7°C 53.1°F11.7°C 50% 2.3 mph WSW3.7 kmh WSW 8.1 mph13.0 kmh 29.79 in1008.8 mb - 0.00 in0.0 mm 0.11 in2.8 mm
03:30 PM 73.5°F23.1°C 53.2°F11.8°C 49% 5.8 mph SW9.3 kmh SW 11.5 mph18.5 kmh 29.79 in1008.8 mb - 0.00 in0.0 mm 0.11 in2.8 mm
03:15 PM 74.0°F23.3°C 54.7°F12.6°C 51% 5.8 mph WNW9.3 kmh WNW 10.4 mph16.7 kmh 29.78 in1008.5 mb - 0.00 in0.0 mm 0.11 in2.8 mm
03:00 PM 75.1°F23.9°C 58.3°F14.6°C 56% 3.5 mph NW5.6 kmh NW 6.9 mph11.1 kmh 29.77 in1008.1 mb - 0.00 in0.0 mm 0.11 in2.8 mm
02:45 PM 75.7°F24.3°C 58.4°F14.7°C 55% 6.9 mph WSW11.1 kmh WSW 11.5 mph18.5 kmh 29.77 in1008.1 mb - 0.00 in0.0 mm 0.11 in2.8 mm
02:30 PM 76.4°F24.7°C 60.0°F15.6°C 57% 3.5 mph WSW5.6 kmh WSW 4.6 mph7.4 kmh 29.77 in1008.1 mb - 0.00 in0.0 mm 0.11 in2.8 mm
02:15 PM 75.7°F24.3°C 61.3°F16.3°C 61% 1.2 mph NE1.9 kmh NE 1.2 mph1.9 kmh 29.77 in1008.1 mb - 0.00 in0.0 mm 0.11 in2.8 mm
02:00 PM 74.8°F23.8°C 61.4°F16.3°C 63% 2.3 mph WNW3.7 kmh WNW 5.8 mph9.3 kmh 29.78 in1008.5 mb - 0.00 in0.0 mm 0.11 in2.8 mm
01:45 PM 74.5°F23.6°C 62.0°F16.7°C 65% 1.2 mph SSW1.9 kmh SSW 4.6 mph7.4 kmh 29.79 in1008.8 mb - 0.00 in0.0 mm 0.11 in2.8 mm
01:30 PM 74.2°F23.4°C 62.6°F17.0°C 67% Calm Calm 3.5 mph5.6 kmh 29.79 in1008.8 mb - 0.00 in0.0 mm 0.11 in2.8 mm
01:15 PM 74.1°F23.4°C 64.5°F18.1°C 72% 1.2 mph SE1.9 kmh SE 2.3 mph3.7 kmh 29.80 in1009.1 mb - 0.00 in0.0 mm 0.11 in2.8 mm
01:00 PM 72.8°F22.7°C 64.8°F18.2°C 76% Calm Calm -- 29.81 in1009.5 mb - 0.00 in0.0 mm 0.11 in2.8 mm
12:45 PM 70.7°F21.5°C 64.9°F18.3°C 82% 1.2 mph W1.9 kmh W 3.5 mph5.6 kmh 29.82 in1009.8 mb - 0.00 in0.0 mm 0.11 in2.8 mm
12:30 PM 69.4°F20.8°C 64.4°F18.0°C 84% 1.2 mph S1.9 kmh S 1.2 mph1.9 kmh 29.83 in1010.2 mb - 0.00 in0.0 mm 0.11 in2.8 mm
12:15 PM 69.4°F20.8°C 64.4°F18.0°C 84% Calm Calm 1.2 mph1.9 kmh 29.84 in1010.5 mb - 0.00 in0.0 mm 0.11 in2.8 mm
12:00 PM 69.6°F20.9°C 64.2°F17.9°C 83% Calm Calm -- 29.85 in1010.8 mb - 0.00 in0.0 mm 0.11 in2.8 mm
11:45 AM 69.4°F20.8°C 64.7°F18.2°C 85% 1.2 mph SW1.9 kmh SW 6.9 mph11.1 kmh 29.86 in1011.2 mb - 0.00 in0.0 mm 0.11 in2.8 mm
11:30 AM 68.8°F20.4°C 64.5°F18.1°C 86% 2.3 mph S3.7 kmh S 6.9 mph11.1 kmh 29.86 in1011.2 mb - 0.00 in0.0 mm 0.11 in2.8 mm
11:15 AM 69.1°F20.6°C 64.7°F18.2°C 86% Calm Calm -- 29.87 in1011.5 mb - 0.00 in0.0 mm 0.11 in2.8 mm
11:00 AM 69.0°F20.6°C 65.0°F18.3°C 87% Calm Calm -- 29.87 in1011.5 mb - 0.00 in0.0 mm 0.11 in2.8 mm
10:45 AM 68.5°F20.3°C 65.1°F18.4°C 89% Calm Calm 6.9 mph11.1 kmh 29.87 in1011.5 mb - 0.00 in0.0 mm 0.11 in2.8 mm
10:30 AM 67.6°F19.8°C 64.6°F18.1°C 90% Calm Calm -- 29.88 in1011.9 mb - 0.00 in0.0 mm 0.11 in2.8 mm
10:15 AM 66.8°F19.3°C 64.1°F17.8°C 91% 2.3 mph S3.7 kmh S 5.8 mph9.3 kmh 29.88 in1011.9 mb - 0.00 in0.0 mm 0.11 in2.8 mm
10:00 AM 66.6°F19.2°C 63.9°F17.7°C 91% 1.2 mph SW1.9 kmh SW -- 29.89 in1012.2 mb - 0.00 in0.0 mm 0.11 in2.8 mm
09:45 AM 66.7°F19.3°C 64.0°F17.8°C 91% 1.2 mph NNW1.9 kmh NNW 3.5 mph5.6 kmh 29.88 in1011.9 mb - 0.00 in0.0 mm 0.11 in2.8 mm
09:30 AM 66.6°F19.2°C 64.2°F17.9°C 92% 1.2 mph WNW1.9 kmh WNW 1.2 mph1.9 kmh 29.88 in1011.9 mb - 0.00 in0.0 mm 0.11 in2.8 mm
09:15 AM 66.5°F19.2°C 64.1°F17.8°C 92% Calm Calm 2.3 mph3.7 kmh 29.88 in1011.9 mb - 0.00 in0.0 mm 0.11 in2.8 mm
09:00 AM 66.5°F19.2°C 64.4°F18.0°C 93% Calm Calm 2.3 mph3.7 kmh 29.87 in1011.5 mb - 0.00 in0.0 mm 0.11 in2.8 mm
08:45 AM 66.3°F19.1°C 64.2°F17.9°C 93% 1.2 mph S1.9 kmh S 6.9 mph11.1 kmh 29.87 in1011.5 mb - 0.00 in0.0 mm 0.11 in2.8 mm
08:30 AM 66.4°F19.1°C 64.3°F17.9°C 93% 1.2 mph SW1.9 kmh SW 9.2 mph14.8 kmh 29.87 in1011.5 mb - 0.00 in0.0 mm 0.11 in2.8 mm
08:15 AM 66.2°F19.0°C 64.4°F18.0°C 94% 2.3 mph SSW3.7 kmh SSW 6.9 mph11.1 kmh 29.87 in1011.5 mb - 0.00 in0.0 mm 0.11 in2.8 mm
08:00 AM 66.0°F18.9°C 64.5°F18.1°C 95% 1.2 mph SW1.9 kmh SW 4.6 mph7.4 kmh 29.87 in1011.5 mb - 0.00 in0.0 mm 0.11 in2.8 mm
07:45 AM 65.9°F18.8°C 64.4°F18.0°C 95% 2.3 mph SW3.7 kmh SW 6.9 mph11.1 kmh 29.87 in1011.5 mb - 0.00 in0.0 mm 0.11 in2.8 mm
07:30 AM 65.9°F18.8°C 64.7°F18.2°C 96% Calm Calm 1.2 mph1.9 kmh 29.87 in1011.5 mb - 0.00 in0.0 mm 0.11 in2.8 mm
07:15 AM 65.8°F18.8°C 64.6°F18.1°C 96% 2.3 mph WSW3.7 kmh WSW 5.8 mph9.3 kmh 29.87 in1011.5 mb - 0.00 in0.0 mm 0.11 in2.8 mm
07:00 AM 65.9°F18.8°C 64.7°F18.2°C 96% 3.5 mph SW5.6 kmh SW 9.2 mph14.8 kmh 29.86 in1011.2 mb - 0.00 in0.0 mm 0.11 in2.8 mm
06:45 AM 66.0°F18.9°C 64.5°F18.1°C 95% 5.8 mph S9.3 kmh S 8.1 mph13.0 kmh 29.87 in1011.5 mb - 0.03 in0.8 mm 0.11 in2.8 mm
06:30 AM 66.1°F18.9°C 64.7°F18.2°C 95% 4.6 mph S7.4 kmh S 10.4 mph16.7 kmh 29.86 in1011.2 mb - 0.04 in1.0 mm 0.08 in2.0 mm
06:15 AM 66.1°F18.9°C 64.3°F17.9°C 94% 8.1 mph S13.0 kmh S 11.5 mph18.5 kmh 29.86 in1011.2 mb - 0.03 in0.8 mm 0.04 in1.0 mm
06:00 AM 66.5°F19.2°C 64.1°F17.8°C 92% 4.6 mph S7.4 kmh S 13.8 mph22.2 kmh 29.86 in1011.2 mb - 0.02 in0.5 mm 0.02 in0.5 mm
05:45 AM 66.8°F19.3°C 64.1°F17.8°C 91% 6.9 mph S11.1 kmh S 11.5 mph18.5 kmh 29.86 in1011.2 mb - 0.00 in0.0 mm 0.00 in0.0 mm
05:30 AM 66.7°F19.3°C 64.0°F17.8°C 91% 4.6 mph S7.4 kmh S 11.5 mph18.5 kmh 29.87 in1011.5 mb - 0.00 in0.0 mm 0.00 in0.0 mm
05:15 AM 66.5°F19.2°C 64.1°F17.8°C 92% 5.8 mph S9.3 kmh S 9.2 mph14.8 kmh 29.88 in1011.9 mb - 0.00 in0.0 mm 0.00 in0.0 mm
05:00 AM 66.2°F19.0°C 63.5°F17.5°C 91% 3.5 mph S5.6 kmh S 6.9 mph11.1 kmh 29.88 in1011.9 mb - 0.00 in0.0 mm 0.00 in0.0 mm
04:45 AM 66.2°F19.0°C 63.5°F17.5°C 91% 5.8 mph S9.3 kmh S 8.1 mph13.0 kmh 29.88 in1011.9 mb - 0.00 in0.0 mm 0.00 in0.0 mm
04:30 AM 65.9°F18.8°C 63.5°F17.5°C 92% 9.2 mph S14.8 kmh S 18.4 mph29.6 kmh 29.87 in1011.5 mb - 0.00 in0.0 mm 0.00 in0.0 mm
04:15 AM 65.8°F18.8°C 63.4°F17.4°C 92% 8.1 mph S13.0 kmh S 11.5 mph18.5 kmh 29.89 in1012.2 mb - 0.00 in0.0 mm 0.00 in0.0 mm
04:00 AM 65.7°F18.7°C 63.3°F17.4°C 92% 5.8 mph S9.3 kmh S 6.9 mph11.1 kmh 29.89 in1012.2 mb - 0.00 in0.0 mm 0.00 in0.0 mm
03:45 AM 65.5°F18.6°C 62.8°F17.1°C 91% 4.6 mph S7.4 kmh S 11.5 mph18.5 kmh 29.90 in1012.5 mb - 0.00 in0.0 mm 0.00 in0.0 mm
03:30 AM 65.6°F18.7°C 62.9°F17.2°C 91% 6.9 mph S11.1 kmh S 10.4 mph16.7 kmh 29.91 in1012.9 mb - 0.00 in0.0 mm 0.00 in0.0 mm
03:15 AM 65.4°F18.6°C 62.7°F17.1°C 91% 9.2 mph S14.8 kmh S 17.3 mph27.8 kmh 29.92 in1013.2 mb - 0.00 in0.0 mm 0.00 in0.0 mm
03:00 AM 65.4°F18.6°C 62.4°F16.9°C 90% 8.1 mph S13.0 kmh S 10.4 mph16.7 kmh 29.92 in1013.2 mb - 0.00 in0.0 mm 0.00 in0.0 mm
02:45 AM 65.2°F18.4°C 62.2°F16.8°C 90% 6.9 mph S11.1 kmh S 9.2 mph14.8 kmh 29.93 in1013.5 mb - 0.00 in0.0 mm 0.00 in0.0 mm
02:30 AM 64.9°F18.3°C 62.2°F16.8°C 91% 8.1 mph S13.0 kmh S 16.1 mph25.9 kmh 29.93 in1013.5 mb - 0.00 in0.0 mm 0.00 in0.0 mm
02:15 AM 64.7°F18.2°C 62.0°F16.7°C 91% 6.9 mph SSW11.1 kmh SSW 9.2 mph14.8 kmh 29.94 in1013.9 mb - 0.00 in0.0 mm 0.00 in0.0 mm
02:00 AM 64.3°F17.9°C 61.9°F16.6°C 92% 8.1 mph S13.0 kmh S 9.2 mph14.8 kmh 29.94 in1013.9 mb - 0.00 in0.0 mm 0.00 in0.0 mm
01:45 AM 63.9°F17.7°C 61.9°F16.6°C 93% 5.8 mph S9.3 kmh S 9.2 mph14.8 kmh 29.94 in1013.9 mb - 0.00 in0.0 mm 0.00 in0.0 mm
01:30 AM 63.8°F17.7°C 62.0°F16.7°C 94% 5.8 mph S9.3 kmh S 6.9 mph11.1 kmh 29.94 in1013.9 mb - 0.00 in0.0 mm 0.00 in0.0 mm
01:15 AM 63.4°F17.4°C 61.6°F16.4°C 94% 5.8 mph S9.3 kmh S 8.1 mph13.0 kmh 29.95 in1014.2 mb - 0.00 in0.0 mm 0.00 in0.0 mm
01:00 AM 63.2°F17.3°C 61.7°F16.5°C 95% 5.8 mph SSE9.3 kmh SSE 9.2 mph14.8 kmh 29.96 in1014.6 mb - 0.00 in0.0 mm 0.00 in0.0 mm
12:45 AM 62.7°F17.1°C 61.5°F16.4°C 96% 4.6 mph SSE7.4 kmh SSE 6.9 mph11.1 kmh 29.97 in1014.9 mb - 0.00 in0.0 mm 0.00 in0.0 mm
12:30 AM 62.1°F16.7°C 61.0°F16.1°C 96% 4.6 mph SSE7.4 kmh SSE 5.8 mph9.3 kmh 29.98 in1015.2 mb - 0.00 in0.0 mm 0.00 in0.0 mm
12:15 AM 61.7°F16.5°C 60.8°F16.0°C 97% 3.5 mph SSE5.6 kmh SSE 6.9 mph11.1 kmh 30.00 in1015.9 mb - 0.00 in0.0 mm 0.00 in0.0 mm
12:00 AM 61.3°F16.3°C 60.5°F15.8°C 97% 5.8 mph SSE9.3 kmh SSE 5.8 mph9.3 kmh 30.00 in1015.9 mb - 0.00 in0.0 mm 0.00 in0.0 mm